KSLO/SLO METAR and TAF weather

Enter ICAO airport designator
Station Type Date Time Source
KSLO METAR 2022/08/12 14:55 UTC NOAA

KSLO 121455Z AUTO 06003KT 10SM CLR 23/16 A3021 RMK AO2 T02300164


Station Type Date Time Source
KSLO Decoded METAR 2022/08/12 14:55 UTC NOAA

Salem, Salem-Leckrone Airport, IL, United States (KSLO) 38-38-34N 088-57-51W 174M
Aug 12, 2022 - 10:55 AM EDT / 2022.08.12 1455 UTC
Wind: from the ENE (060 degrees) at 3 MPH (3 KT):0
Visibility: 10 mile(s):0
Sky conditions: clear
Temperature: 73.4 F (23.0 C)
Dew Point: 61.5 F (16.4 C)
Relative Humidity: 66%
Pressure (altimeter): 30.21 in. Hg (1023 hPa)
ob: KSLO 121455Z AUTO 06003KT 10SM CLR 23/16 A3021 RMK AO2 T02300164
cycle: 15

Station Type Date Time Source
KSLO TAF UTC NOAA

Error!

Example: see airport list